Time;durP1;ratioP1;P1;durP2;ratioP2;P2;SDS_P1;SDS_P2;PMS_P1;PMS_P2;Temp;Humidity;BMP_temperature;BMP_pressure;BME280_temperature;BME280_humidity;BME280_pressure;Samples;Min_cycle;Max_cycle;Signal;HPM_P1;HPM_P2
2021/04/29 00:01:19;;;;;;;20.85;11.52;;;;;;;10.90;61.37;94278.13;5031993;28;20053;-72
2021/04/29 00:03:45;;;;;;;23.73;11.70;;;;;;;11.07;61.38;94284.53;5028191;28;20044;-71
2021/04/29 00:06:11;;;;;;;19.95;11.68;;;;;;;11.08;61.95;94286.88;5028296;28;20045;-72
2021/04/29 00:08:39;;;;;;;18.38;11.20;;;;;;;11.06;62.63;94290.88;5024525;28;20507;-70
2021/04/29 00:11:07;;;;;;;21.42;11.05;;;;;;;11.10;62.57;94289.19;5030362;28;20048;-70
2021/04/29 00:13:33;;;;;;;19.20;11.48;;;;;;;11.09;62.93;94292.91;5030959;28;20057;-71
2021/04/29 00:15:58;;;;;;;19.00;10.70;;;;;;;11.09;63.41;94298.16;5030768;28;20049;-70
2021/04/29 00:18:25;;;;;;;16.92;10.60;;;;;;;11.12;63.60;94294.94;5025542;28;20041;-71
2021/04/29 00:20:56;;;;;;;17.20;10.05;;;;;;;11.25;63.96;94301.97;5029743;28;20063;-71
2021/04/29 00:23:23;;;;;;;18.05;10.02;;;;;;;11.23;63.85;94304.16;5030567;28;20042;-71
2021/04/29 00:25:49;;;;;;;18.25;9.93;;;;;;;11.23;63.83;94304.16;5029000;28;20095;-71
2021/04/29 00:28:14;;;;;;;20.38;9.82;;;;;;;11.21;64.61;94313.44;5029744;28;20037;-71
2021/04/29 00:30:40;;;;;;;18.10;9.57;;;;;;;11.25;64.76;94317.78;5030283;28;20507;-71
2021/04/29 00:33:06;;;;;;;16.20;9.27;;;;;;;11.25;64.32;94312.50;5028861;28;20046;-72
2021/04/29 00:35:31;;;;;;;15.18;8.63;;;;;;;11.20;65.31;94315.25;5030000;28;20037;-72
2021/04/29 00:37:57;;;;;;;15.35;8.57;;;;;;;11.29;65.15;94319.81;5029041;28;20034;-71
2021/04/29 00:40:22;;;;;;;13.60;8.27;;;;;;;11.34;65.08;94322.31;5029043;28;20069;-71
2021/04/29 00:42:48;;;;;;;14.15;8.07;;;;;;;11.34;64.75;94319.69;5028995;28;20047;-73
2021/04/29 00:45:14;;;;;;;14.13;7.82;;;;;;;11.39;64.76;94327.44;5028252;28;20099;-72
2021/04/29 00:47:40;;;;;;;14.70;8.05;;;;;;;11.33;65.30;94328.66;5025506;28;20048;-71
2021/04/29 00:50:08;;;;;;;16.83;7.90;;;;;;;11.33;65.57;94333.94;5029423;28;20202;-71
2021/04/29 00:52:34;;;;;;;14.95;7.13;;;;;;;11.32;65.36;94316.56;5027845;28;20048;-71
2021/04/29 00:55:00;;;;;;;13.25;8.10;;;;;;;11.38;65.37;94325.91;5028189;28;20048;-72
2021/04/29 00:57:26;;;;;;;12.40;7.47;;;;;;;11.37;65.60;94326.97;5028774;28;20048;-71
2021/04/29 00:59:55;;;;;;;10.50;6.90;;;;;;;11.42;65.39;94321.56;5028532;28;20140;-71
2021/04/29 01:02:23;;;;;;;12.98;7.03;;;;;;;11.45;65.50;94328.88;5025583;28;20537;-71
2021/04/29 01:04:58;;;;;;;13.18;7.30;;;;;;;11.40;65.72;94339.53;5027183;28;20044;-71
2021/04/29 01:07:26;;;;;;;14.35;6.85;;;;;;;11.35;66.20;94337.03;5020865;28;20034;-71
2021/04/29 01:09:57;;;;;;;9.82;6.93;;;;;;;11.29;66.28;94338.25;5027806;28;20099;-72
2021/04/29 01:12:22;;;;;;;12.10;7.03;;;;;;;11.29;66.21;94338.25;5028840;28;20072;-71
2021/04/29 01:14:50;;;;;;;12.32;6.85;;;;;;;11.31;66.54;94336.09;5028556;28;20049;-71
2021/04/29 01:17:17;;;;;;;9.77;6.57;;;;;;;11.40;66.08;94334.28;5025388;28;20041;-71
2021/04/29 01:19:48;;;;;;;13.70;6.53;;;;;;;11.22;66.46;94328.91;5025124;28;20045;-72
2021/04/29 01:22:14;;;;;;;11.07;7.30;;;;;;;11.16;66.93;94329.34;5028602;28;20049;-72
2021/04/29 01:25:08;;;;;;;11.40;7.25;;;;;;;11.20;66.63;94341.59;5026213;28;20042;-71
2021/04/29 01:27:34;;;;;;;10.85;6.78;;;;;;;11.17;66.52;94342.19;5022765;28;20053;-72
2021/04/29 01:30:03;;;;;;;12.07;7.07;;;;;;;11.18;66.88;94341.13;5030682;28;20036;-71
2021/04/29 01:32:29;;;;;;;12.10;6.65;;;;;;;11.14;66.75;94345.44;5026191;28;20352;-72
2021/04/29 01:34:55;;;;;;;11.82;6.32;;;;;;;11.09;67.17;94340.28;5032178;28;20233;-72
2021/04/29 01:37:21;;;;;;;19.10;7.30;;;;;;;11.12;67.35;94339.72;5025327;28;20033;-71
2021/04/29 01:39:48;;;;;;;11.57;6.22;;;;;;;11.19;66.58;94340.06;5026057;28;20045;-72
2021/04/29 01:42:13;;;;;;;10.73;6.78;;;;;;;11.20;66.64;94336.34;5028123;28;20041;-71
2021/04/29 01:44:39;;;;;;;13.50;7.63;;;;;;;11.12;66.78;94339.72;5028395;28;20120;-72
2021/04/29 01:47:06;;;;;;;17.27;8.65;;;;;;;11.19;67.10;94340.06;5025234;28;20483;-71
2021/04/29 01:49:32;;;;;;;12.60;7.25;;;;;;;11.13;67.61;94338.63;5022672;28;20098;-72
2021/04/29 01:52:00;;;;;;;12.80;6.95;;;;;;;11.06;68.59;94335.63;5027430;28;20033;-72
2021/04/29 01:54:26;;;;;;;10.93;7.05;;;;;;;11.05;68.60;94339.34;5024185;28;20045;-73
2021/04/29 01:56:51;;;;;;;11.18;7.13;;;;;;;11.06;68.32;94340.91;5028310;28;20037;-71
2021/04/29 01:59:18;;;;;;;14.95;7.13;;;;;;;11.09;68.57;94341.09;5026259;28;20049;-71
2021/04/29 02:01:45;;;;;;;16.67;7.70;;;;;;;11.15;68.70;94335.69;5028659;28;20115;-71
2021/04/29 02:04:11;;;;;;;15.23;7.97;;;;;;;11.01;69.60;94343.66;5025248;28;20046;-72
2021/04/29 02:06:38;;;;;;;11.68;7.43;;;;;;;10.96;69.76;94335.88;5025004;28;20120;-71
2021/04/29 02:09:05;;;;;;;14.02;7.72;;;;;;;10.83;70.37;94329.59;5020132;28;20045;-71
2021/04/29 02:11:35;;;;;;;11.98;7.80;;;;;;;10.77;70.09;94328.94;5027307;28;20045;-72
2021/04/29 02:14:03;;;;;;;13.45;7.57;;;;;;;10.77;70.15;94334.19;5028114;28;20060;-71
2021/04/29 02:16:44;;;;;;;11.98;7.57;;;;;;;10.76;69.91;94327.41;5025038;28;20052;-72
2021/04/29 02:19:10;;;;;;;11.93;7.85;;;;;;;10.74;69.70;94335.56;5023272;28;20038;-71
2021/04/29 02:21:42;;;;;;;13.95;8.02;;;;;;;10.77;69.42;94334.19;5027703;28;20236;-71
2021/04/29 02:24:10;;;;;;;14.95;8.00;;;;;;;10.64;69.99;94345.56;5027605;28;20076;-72
2021/04/29 02:26:36;;;;;;;12.75;8.07;;;;;;;10.56;70.64;94334.69;5023328;28;20091;-71
2021/04/29 02:29:06;;;;;;;14.23;8.10;;;;;;;10.47;71.44;94336.44;5027281;28;20041;-71
2021/04/29 02:31:35;;;;;;;15.25;8.63;;;;;;;10.37;71.76;94332.22;5025890;28;20038;-71
2021/04/29 02:34:03;;;;;;;13.57;8.45;;;;;;;10.29;72.21;94335.50;5025286;28;20524;-71
2021/04/29 02:36:29;;;;;;;14.80;7.93;;;;;;;10.22;71.86;94330.63;5028479;28;20045;-74
2021/04/29 02:38:56;;;;;;;17.88;8.40;;;;;;;10.17;72.67;94333.38;5024590;28;20037;-71
2021/04/29 02:41:22;;;;;;;17.73;8.40;;;;;;;10.13;72.50;94337.69;5025109;28;20121;-72
2021/04/29 02:43:48;;;;;;;13.68;7.82;;;;;;;10.09;72.84;94336.72;5027870;28;20045;-70
2021/04/29 02:46:14;;;;;;;15.23;8.38;;;;;;;10.06;72.47;94332.03;5026967;28;20454;-71
2021/04/29 02:48:43;;;;;;;14.52;8.32;;;;;;;10.05;72.35;94341.00;5028243;28;20068;-71
2021/04/29 02:51:10;;;;;;;13.82;8.07;;;;;;;10.04;72.45;94350.72;5026020;28;20049;-70
2021/04/29 02:53:37;;;;;;;15.98;8.07;;;;;;;10.03;72.19;94354.44;5026748;28;20041;-71
2021/04/29 02:56:03;;;;;;;13.90;7.88;;;;;;;9.96;72.39;94350.66;5027612;28;20048;-70
2021/04/29 02:58:28;;;;;;;14.23;9.13;;;;;;;9.95;72.59;94346.44;5028063;28;20041;-70
2021/04/29 03:00:54;;;;;;;13.27;8.32;;;;;;;9.91;72.73;94350.72;5026423;28;20087;-70
2021/04/29 03:03:20;;;;;;;15.23;8.63;;;;;;;9.83;72.46;94345.09;5027659;28;20605;-70
2021/04/29 03:05:46;;;;;;;16.00;8.93;;;;;;;9.86;71.90;94343.75;5032043;28;20038;-70
2021/04/29 03:08:12;;;;;;;15.40;9.27;;;;;;;9.92;71.41;94347.03;5032997;28;20067;-71
2021/04/29 03:10:38;;;;;;;17.48;9.07;;;;;;;9.80;72.59;94352.78;5027337;28;20029;-70
2021/04/29 03:13:03;;;;;;;14.90;9.43;;;;;;;9.75;72.24;94352.88;5030587;28;20045;-70
2021/04/29 03:15:29;;;;;;;16.40;9.05;;;;;;;9.71;72.05;94353.47;5030615;28;20490;-71
2021/04/29 03:17:55;;;;;;;20.30;10.10;;;;;;;9.67;72.27;94362.22;5025678;28;20038;-70
2021/04/29 03:20:20;;;;;;;16.00;8.55;;;;;;;9.70;72.45;94361.66;5029999;28;20661;-71
2021/04/29 03:22:46;;;;;;;25.58;9.77;;;;;;;9.68;72.37;94358.50;5028319;28;20079;-70
2021/04/29 03:25:13;;;;;;;18.95;9.27;;;;;;;9.66;72.74;94365.91;5031629;28;20296;-70
2021/04/29 03:27:40;;;;;;;15.85;9.20;;;;;;;9.69;72.08;94360.06;5030297;28;20522;-72
2021/04/29 03:30:06;;;;;;;14.55;9.23;;;;;;;9.63;72.57;94371.75;5032453;28;20052;-71
2021/04/29 03:32:32;;;;;;;16.85;8.60;;;;;;;9.66;72.04;94371.16;5033895;28;20052;-70
2021/04/29 03:34:58;;;;;;;13.02;8.02;;;;;;;9.57;72.64;94367.66;5029030;28;20033;-70
2021/04/29 03:37:24;;;;;;;13.80;8.68;;;;;;;9.51;73.58;94375.63;5028879;28;20046;-70
2021/04/29 03:39:49;;;;;;;14.07;7.45;;;;;;;9.60;72.58;94372.34;5029734;28;20052;-70
2021/04/29 03:42:16;;;;;;;11.90;7.80;;;;;;;9.50;73.22;94378.56;5030572;28;20116;-72
2021/04/29 03:44:41;;;;;;;13.15;7.80;;;;;;;9.43;73.41;94381.53;5030051;28;20157;-70
2021/04/29 03:47:08;;;;;;;14.82;8.05;;;;;;;9.44;73.10;94377.88;5029976;28;20045;-71
2021/04/29 03:49:34;;;;;;;11.80;7.53;;;;;;;9.33;73.92;94381.72;5027833;28;20041;-71
2021/04/29 03:52:00;;;;;;;13.63;7.13;;;;;;;9.38;73.75;94381.66;5032501;28;20033;-70
2021/04/29 03:54:25;;;;;;;11.02;6.55;;;;;;;9.51;73.44;94391.38;5026697;28;20053;-71
2021/04/29 03:56:52;;;;;;;11.50;6.68;;;;;;;9.48;73.00;94385.94;5024767;28;20044;-69
2021/04/29 03:59:17;;;;;;;10.68;6.18;;;;;;;9.47;73.44;94390.41;5030616;28;20045;-72
2021/04/29 04:01:43;;;;;;;10.75;5.57;;;;;;;9.56;73.27;94387.13;5029553;28;20079;-70
2021/04/29 04:04:09;;;;;;;10.52;6.20;;;;;;;9.59;73.13;94397.03;5028990;28;20041;-71
2021/04/29 04:06:34;;;;;;;13.40;5.97;;;;;;;9.64;72.89;94399.56;5028277;28;20041;-71
2021/04/29 04:09:00;;;;;;;10.65;5.30;;;;;;;9.75;72.58;94400.16;5024744;28;20065;-71
2021/04/29 04:11:26;;;;;;;8.57;4.72;;;;;;;9.85;72.14;94402.59;5030480;28;20575;-72
2021/04/29 04:13:52;;;;;;;7.10;4.30;;;;;;;9.90;72.03;94407.78;5028812;28;20136;-70
2021/04/29 04:16:18;;;;;;;6.82;4.28;;;;;;;9.97;71.62;94402.13;5025226;28;20048;-71
2021/04/29 04:18:44;;;;;;;6.85;3.75;;;;;;;10.09;71.06;94405.06;5027521;28;20033;-71
2021/04/29 04:21:09;;;;;;;6.93;3.10;;;;;;;10.05;71.09;94390.94;5028668;28;20064;-72
2021/04/29 04:23:35;;;;;;;6.43;3.28;;;;;;;10.23;70.37;94405.81;5028635;28;20438;-71
2021/04/29 04:26:02;;;;;;;7.35;3.05;;;;;;;10.23;70.45;94400.56;5031758;28;20076;-71
2021/04/29 04:28:28;;;;;;;7.47;2.85;;;;;;;10.27;70.41;94407.84;5028871;28;20053;-70
2021/04/29 04:30:54;;;;;;;4.60;2.70;;;;;;;10.32;70.17;94407.75;5031761;28;20041;-71
2021/04/29 04:33:19;;;;;;;4.15;2.58;;;;;;;10.48;69.37;94410.88;5025224;28;20041;-71
2021/04/29 04:35:45;;;;;;;5.25;2.70;;;;;;;10.55;69.25;94412.03;5029819;28;20045;-71
2021/04/29 04:38:11;;;;;;;3.75;2.15;;;;;;;10.70;68.46;94418.03;5022190;28;20045;-71
2021/04/29 04:40:37;;;;;;;3.67;2.25;;;;;;;10.73;68.40;94417.44;5029303;28;20479;-70
2021/04/29 04:43:02;;;;;;;2.83;2.03;;;;;;;10.81;68.22;94418.59;5028416;28;20490;-70
2021/04/29 04:45:28;;;;;;;4.00;2.10;;;;;;;10.83;68.21;94425.13;5029889;28;20037;-71
2021/04/29 04:47:53;;;;;;;3.45;1.77;;;;;;;11.00;67.29;94421.06;5025361;28;20044;-70
2021/04/29 04:50:19;;;;;;;2.35;1.80;;;;;;;11.03;67.41;94423.09;5029606;28;20034;-70
2021/04/29 04:52:45;;;;;;;2.63;1.83;;;;;;;11.16;66.90;94430.19;5026913;28;20046;-71
2021/04/29 04:55:11;;;;;;;5.82;1.77;;;;;;;11.14;67.13;94440.22;5027631;28;20565;-71
2021/04/29 04:57:37;;;;;;;5.53;1.80;;;;;;;11.18;67.09;94438.56;5026070;28;20038;-70
2021/04/29 05:00:04;;;;;;;4.70;2.00;;;;;;;11.20;66.84;94435.63;5028139;28;20045;-70
2021/04/29 05:02:30;;;;;;;4.10;1.88;;;;;;;11.24;66.94;94442.63;5027989;28;20056;-70
2021/04/29 05:04:57;;;;;;;2.97;1.58;;;;;;;11.38;66.74;94442.56;5029108;28;20042;-72
2021/04/29 05:07:23;;;;;;;3.00;1.60;;;;;;;11.48;65.86;94438.91;5028601;28;20498;-71
2021/04/29 05:09:48;;;;;;;2.22;1.60;;;;;;;11.48;66.24;94446.03;5027716;28;20112;-70
2021/04/29 05:12:14;;;;;;;3.92;1.80;;;;;;;11.52;66.10;94445.16;5026399;28;20029;-71
2021/04/29 05:14:40;;;;;;;3.42;1.80;;;;;;;11.63;65.57;94442.25;5027084;28;20069;-73
2021/04/29 05:17:05;;;;;;;4.50;1.45;;;;;;;11.60;65.04;94439.13;5027108;28;20410;-70
2021/04/29 05:19:31;;;;;;;5.65;1.77;;;;;;;11.75;64.65;94450.38;5025420;28;20113;-70
2021/04/29 05:21:57;;;;;;;5.35;1.83;;;;;;;11.67;64.56;94448.47;5025912;28;20483;-71
2021/04/29 05:24:22;;;;;;;3.10;1.92;;;;;;;11.70;64.94;94442.59;5027048;28;20503;-71
2021/04/29 05:26:48;;;;;;;2.35;1.60;;;;;;;11.72;64.38;94450.97;5029535;28;20046;-71
2021/04/29 05:29:14;;;;;;;4.72;1.75;;;;;;;11.71;64.40;94454.69;5028034;28;20069;-73
2021/04/29 05:31:39;;;;;;;3.33;1.85;;;;;;;11.72;64.11;94456.25;5024806;28;20068;-71
2021/04/29 05:34:05;;;;;;;4.75;1.60;;;;;;;11.77;63.20;94458.78;5026774;28;20049;-71
2021/04/29 05:36:31;;;;;;;3.72;1.80;;;;;;;11.82;63.13;94460.50;5028921;28;20042;-70
2021/04/29 05:38:57;;;;;;;3.67;1.70;;;;;;;11.99;62.28;94465.09;5026600;28;20064;-71
2021/04/29 05:41:23;;;;;;;6.88;2.00;;;;;;;12.07;62.81;94461.75;5027434;28;20437;-70
2021/04/29 05:43:49;;;;;;;4.43;1.77;;;;;;;12.12;62.54;94461.59;5024815;28;20034;-70
2021/04/29 05:46:15;;;;;;;4.68;1.90;;;;;;;12.17;61.73;94460.66;5026267;28;20037;-70
2021/04/29 05:48:41;;;;;;;8.85;1.98;;;;;;;12.12;61.21;94461.59;5027688;28;20105;-71
2021/04/29 05:51:07;;;;;;;2.17;1.63;;;;;;;12.34;60.52;94459.97;5025805;28;20465;-71
2021/04/29 05:53:33;;;;;;;4.80;1.83;;;;;;;12.27;60.12;94466.47;5025409;28;20046;-70
2021/04/29 05:55:59;;;;;;;5.15;1.85;;;;;;;12.38;60.01;94466.19;5024907;28;20041;-69
2021/04/29 05:58:25;;;;;;;2.53;1.50;;;;;;;12.47;58.16;94464.38;5029105;28;20049;-71
2021/04/29 06:00:50;;;;;;;5.70;2.55;;;;;;;12.40;59.32;94464.03;5024953;28;20041;-70
2021/04/29 06:03:16;;;;;;;5.68;1.73;;;;;;;12.35;58.86;94482.63;5029198;28;20129;-70
2021/04/29 06:05:42;;;;;;;7.88;1.60;;;;;;;12.27;58.04;94477.00;5025154;28;20037;-71
2021/04/29 06:08:08;;;;;;;10.63;1.83;;;;;;;12.07;58.93;94480.97;5023079;28;20048;-71
2021/04/29 06:10:35;;;;;;;4.15;1.70;;;;;;;12.09;58.60;94485.94;5029079;28;20121;-71
2021/04/29 06:13:02;;;;;;;2.53;1.75;;;;;;;12.05;57.87;94484.97;5027620;28;20042;-71
2021/04/29 06:15:28;;;;;;;4.70;1.67;;;;;;;12.11;57.48;94489.03;5027050;28;20120;-70
2021/04/29 06:17:54;;;;;;;4.10;1.92;;;;;;;12.35;57.24;94487.91;5028710;28;20475;-71
2021/04/29 06:20:20;;;;;;;5.75;1.90;;;;;;;12.54;56.70;94491.09;5027288;28;20038;-71
2021/04/29 06:22:46;;;;;;;4.50;1.60;;;;;;;12.84;54.82;94504.47;5025289;28;20040;-70
2021/04/29 06:25:12;;;;;;;5.20;1.98;;;;;;;12.76;55.50;94507.91;5024152;28;20042;-72
2021/04/29 06:27:38;;;;;;;4.97;1.92;;;;;;;12.83;54.93;94502.94;5023692;28;20033;-72
2021/04/29 06:30:06;;;;;;;3.08;1.60;;;;;;;12.85;55.39;94513.97;5026713;28;20544;-72
2021/04/29 06:32:32;;;;;;;4.13;1.67;;;;;;;12.74;53.83;94520.63;5023730;28;20050;-69
2021/04/29 06:34:58;;;;;;;3.03;1.88;;;;;;;12.74;53.09;94525.91;5024726;28;20056;-72
2021/04/29 06:37:24;;;;;;;13.38;2.40;;;;;;;12.55;54.04;94540.13;5023130;28;20037;-72
2021/04/29 06:39:49;;;;;;;6.38;2.05;;;;;;;12.35;54.41;94538.03;5027089;28;20048;-72
2021/04/29 06:42:15;;;;;;;4.82;1.92;;;;;;;12.10;54.95;94540.25;5031058;28;20091;-72
2021/04/29 06:44:41;;;;;;;8.38;2.28;;;;;;;12.05;55.21;94543.00;5029265;28;20041;-72
2021/04/29 06:47:07;;;;;;;8.30;2.28;;;;;;;12.00;55.58;94551.81;5034606;28;20037;-72
2021/04/29 06:49:33;;;;;;;4.97;2.10;;;;;;;12.11;55.52;94545.22;5026526;28;20037;-71
2021/04/29 06:51:59;;;;;;;7.30;2.00;;;;;;;12.17;55.68;94553.78;5025236;28;20387;-72
2021/04/29 06:54:24;;;;;;;6.00;2.22;;;;;;;12.15;55.31;94558.56;5024732;28;20045;-73
2021/04/29 06:56:52;;;;;;;5.90;2.17;;;;;;;12.17;55.84;94566.97;5031352;28;20080;-71
2021/04/29 06:59:18;;;;;;;5.90;2.10;;;;;;;12.12;55.56;94564.44;5025764;28;20053;-72
2021/04/29 07:01:44;;;;;;;10.68;2.20;;;;;;;12.18;56.18;94563.22;5025254;28;20041;-70
2021/04/29 07:04:09;;;;;;;5.95;2.22;;;;;;;12.12;56.63;94567.06;5027872;28;20038;-71
2021/04/29 07:06:35;;;;;;;7.25;2.58;;;;;;;12.06;56.58;94565.66;5026673;28;20506;-72
2021/04/29 07:09:02;;;;;;;5.88;2.50;;;;;;;11.85;57.30;94566.13;5035518;28;20441;-70
2021/04/29 07:11:28;;;;;;;5.43;2.08;;;;;;;12.28;56.61;94584.09;5028167;28;20049;-71
2021/04/29 07:13:54;;;;;;;5.30;2.28;;;;;;;12.08;56.91;94584.56;5025237;28;20431;-72
2021/04/29 07:16:20;;;;;;;5.25;2.17;;;;;;;12.23;56.15;94586.84;5022966;28;20418;-72
2021/04/29 07:18:45;;;;;;;5.80;2.40;;;;;;;12.18;55.98;94605.44;5026054;28;20042;-72
2021/04/29 07:21:11;;;;;;;5.18;2.25;;;;;;;12.16;56.92;94601.56;5029642;28;20046;-72
2021/04/29 07:23:36;;;;;;;8.07;2.30;;;;;;;12.10;57.34;94603.53;5030533;28;20491;-70
2021/04/29 07:26:02;;;;;;;5.40;2.30;;;;;;;12.15;57.12;94603.38;5029456;28;20041;-71
2021/04/29 07:28:28;;;;;;;6.72;2.17;;;;;;;12.11;56.97;94616.41;5030376;28;20411;-71
2021/04/29 07:30:54;;;;;;;4.25;2.50;;;;;;;12.06;56.57;94618.41;5031572;28;20034;-72
2021/04/29 07:33:20;;;;;;;6.25;2.40;;;;;;;11.94;57.24;94624.22;5028913;28;20041;-72
2021/04/29 07:35:45;;;;;;;5.82;2.63;;;;;;;11.94;56.21;94617.06;5027595;28;20052;-72
2021/04/29 07:38:12;;;;;;;9.13;2.85;;;;;;;11.91;56.47;94612.38;5027166;28;20049;-71
2021/04/29 07:40:38;;;;;;;5.03;2.72;;;;;;;11.81;55.99;94615.25;5028976;28;20038;-72
2021/04/29 07:43:04;;;;;;;8.27;3.20;;;;;;;11.73;56.51;94623.84;5033950;28;20521;-71
2021/04/29 07:45:31;;;;;;;6.40;3.30;;;;;;;11.48;57.30;94623.34;5028914;28;20041;-72
2021/04/29 07:47:56;;;;;;;10.25;3.08;;;;;;;11.46;57.17;94622.06;5030072;28;20479;-71
2021/04/29 07:50:22;;;;;;;8.18;2.78;;;;;;;11.50;57.13;94618.53;5029876;28;20121;-72
2021/04/29 07:52:48;;;;;;;10.07;2.88;;;;;;;11.50;58.01;94623.81;5030764;28;20045;-72
2021/04/29 07:55:15;;;;;;;14.43;3.33;;;;;;;11.60;57.44;94628.84;5026936;28;20080;-72
2021/04/29 07:57:41;;;;;;;8.38;3.17;;;;;;;11.71;58.11;94631.25;5030358;28;20041;-72
2021/04/29 08:00:09;;;;;;;10.20;3.00;;;;;;;11.69;56.78;94641.34;5027426;28;20045;-72
2021/04/29 08:02:35;;;;;;;11.88;3.03;;;;;;;11.55;57.53;94647.44;5021846;28;20045;-72
2021/04/29 08:05:01;;;;;;;6.40;2.83;;;;;;;11.68;57.29;94655.59;5023126;28;20057;-72
2021/04/29 08:07:27;;;;;;;5.68;2.90;;;;;;;11.70;56.78;94658.72;5025334;28;20037;-71
2021/04/29 08:09:53;;;;;;;8.48;3.00;;;;;;;11.74;55.88;94660.47;5027684;28;20056;-72
2021/04/29 08:12:19;;;;;;;5.53;2.97;;;;;;;11.85;55.92;94658.41;5029908;28;20395;-71
2021/04/29 08:14:45;;;;;;;7.90;3.10;;;;;;;11.90;54.99;94663.53;5025787;28;20129;-72
2021/04/29 08:17:10;;;;;;;6.03;3.33;;;;;;;11.92;56.46;94661.41;5029166;28;20052;-72
2021/04/29 08:19:36;;;;;;;4.93;3.10;;;;;;;11.87;55.07;94663.38;5027628;28;20037;-71
2021/04/29 08:22:03;;;;;;;5.93;2.85;;;;;;;12.03;54.95;94661.19;5030759;28;20045;-71
2021/04/29 08:24:29;;;;;;;7.68;2.75;;;;;;;11.99;54.77;94665.50;5030185;28;20403;-72
2021/04/29 08:26:55;;;;;;;9.38;3.72;;;;;;;11.98;53.36;94663.94;5027804;28;20071;-72
2021/04/29 08:29:21;;;;;;;6.65;3.42;;;;;;;11.90;52.30;94674.09;5029335;28;20042;-71
2021/04/29 08:31:47;;;;;;;8.48;3.30;;;;;;;11.83;53.80;94668.44;5026139;28;20042;-73
2021/04/29 08:34:12;;;;;;;6.60;3.00;;;;;;;11.90;53.17;94674.09;5032172;28;20045;-73
2021/04/29 08:36:38;;;;;;;7.60;3.70;;;;;;;12.02;52.62;94676.22;5030886;28;20029;-72
2021/04/29 08:39:05;;;;;;;8.02;3.42;;;;;;;12.05;53.24;94680.13;5025222;28;20060;-72
2021/04/29 08:41:32;;;;;;;6.57;3.53;;;;;;;11.99;52.03;94681.31;5029357;28;20042;-72
2021/04/29 08:43:58;;;;;;;10.77;3.80;;;;;;;11.90;52.50;94679.34;5028261;28;20042;-73
2021/04/29 08:46:24;;;;;;;10.05;3.53;;;;;;;11.73;53.70;94684.47;5028406;28;20104;-71
2021/04/29 08:48:55;;;;;;;8.43;3.65;;;;;;;11.89;52.95;94690.19;5026795;28;20422;-72
2021/04/29 08:51:21;;;;;;;8.38;3.60;;;;;;;11.93;53.14;94678.78;5028334;28;20041;-71
2021/04/29 08:53:48;;;;;;;12.70;4.13;;;;;;;11.80;53.20;94690.13;5029835;28;20052;-73
2021/04/29 08:56:22;;;;;;;11.43;4.97;;;;;;;12.11;52.07;94692.09;5025931;28;20149;-72
2021/04/29 08:58:51;;;;;;;13.88;4.30;;;;;;;12.04;52.70;94689.09;5028613;28;20087;-72
2021/04/29 09:01:16;;;;;;;6.82;3.63;;;;;;;12.20;51.94;94687.69;5021204;28;20068;-72
2021/04/29 09:03:42;;;;;;;8.32;4.28;;;;;;;12.40;52.15;94688.31;5024399;28;20367;-72
2021/04/29 09:06:08;;;;;;;9.05;3.80;;;;;;;12.45;51.11;94688.94;5027761;28;20423;-72
2021/04/29 09:08:35;;;;;;;9.27;4.40;;;;;;;12.40;50.86;94686.44;5025681;28;20114;-71
2021/04/29 09:11:12;;;;;;;7.00;3.90;;;;;;;12.53;51.30;94690.09;5028164;28;20108;-72
2021/04/29 09:13:39;;;;;;;11.00;4.35;;;;;;;12.45;50.93;94680.25;5030759;28;20384;-73
2021/04/29 09:16:12;;;;;;;6.57;4.18;;;;;;;12.45;50.69;94677.59;5028598;28;20048;-75
2021/04/29 09:18:42;;;;;;;10.55;4.57;;;;;;;12.49;50.46;94678.56;5027919;28;20037;-75
2021/04/29 09:21:14;;;;;;;9.35;4.30;;;;;;;12.46;50.79;94671.25;5027998;28;20041;-72
2021/04/29 09:23:41;;;;;;;10.05;4.13;;;;;;;12.50;50.18;94680.13;5021735;28;20400;-71
2021/04/29 09:26:09;;;;;;;9.07;5.15;;;;;;;12.45;49.60;94674.97;5026756;28;20069;-72
2021/04/29 09:28:49;;;;;;;8.73;5.18;;;;;;;12.42;50.04;94678.22;5028414;28;20419;-72
2021/04/29 09:31:21;;;;;;;9.63;5.30;;;;;;;12.44;49.78;94681.31;5026663;28;20065;-71
2021/04/29 09:33:53;;;;;;;11.35;4.93;;;;;;;12.67;49.02;94673.38;5027454;28;20111;-73
2021/04/29 09:36:28;;;;;;;12.35;5.43;;;;;;;12.55;49.69;94666.78;5027232;28;20530;-72
2021/04/29 09:39:01;;;;;;;9.13;5.00;;;;;;;12.78;48.21;94672.03;5027104;28;20677;-71
2021/04/29 09:41:31;;;;;;;10.15;5.10;;;;;;;12.81;48.79;94664.31;5028233;28;20044;-72
2021/04/29 09:43:59;;;;;;;12.02;5.07;;;;;;;12.79;48.65;94670.97;5028490;28;20037;-71
2021/04/29 09:46:25;;;;;;;11.18;5.50;;;;;;;12.97;47.96;94671.81;5022307;28;20046;-72
2021/04/29 09:48:51;;;;;;;8.02;4.60;;;;;;;13.24;47.69;94676.09;5027660;28;20038;-72
2021/04/29 09:51:19;;;;;;;12.05;5.05;;;;;;;13.43;47.88;94667.16;5028591;28;20384;-72
2021/04/29 09:53:50;;;;;;;10.10;5.22;;;;;;;13.41;48.02;94674.63;5025957;28;20041;-72
2021/04/29 09:56:17;;;;;;;12.68;5.63;;;;;;;13.87;46.28;94670.66;5025823;28;20033;-72
2021/04/29 09:58:49;;;;;;;10.13;5.32;;;;;;;13.80;46.09;94670.34;5026435;28;20430;-72
2021/04/29 10:01:15;;;;;;;11.05;5.18;;;;;;;13.92;45.51;94662.59;5020531;28;20041;-72
2021/04/29 10:03:42;;;;;;;10.30;5.43;;;;;;;13.72;46.38;94663.19;5022085;28;20552;-72
2021/04/29 10:06:14;;;;;;;14.25;5.50;;;;;;;13.91;46.34;94666.31;5024249;28;20403;-73
2021/04/29 10:08:40;;;;;;;15.27;6.30;;;;;;;13.48;46.80;94674.97;5021291;28;20235;-72
2021/04/29 10:11:07;;;;;;;14.45;6.03;;;;;;;13.72;46.52;94668.47;5025919;28;20044;-72
2021/04/29 10:13:37;;;;;;;9.73;5.43;;;;;;;13.95;45.92;94656.66;5023319;28;20041;-72
2021/04/29 10:16:03;;;;;;;9.48;5.93;;;;;;;13.85;45.47;94667.56;5025113;28;20048;-72
2021/04/29 10:18:29;;;;;;;10.20;5.85;;;;;;;14.13;44.36;94661.94;5027917;28;20037;-72
2021/04/29 10:20:59;;;;;;;13.18;6.60;;;;;;;14.26;45.02;94662.88;5031453;28;20034;-72
2021/04/29 10:23:26;;;;;;;9.50;5.80;;;;;;;14.36;44.96;94660.66;5024362;28;20041;-73
2021/04/29 10:25:52;;;;;;;11.10;6.10;;;;;;;14.46;44.78;94664.09;5028285;28;20053;-72
2021/04/29 10:28:29;;;;;;;17.10;6.88;;;;;;;13.94;44.79;94659.63;5031557;28;20045;-73
2021/04/29 10:30:55;;;;;;;10.00;5.95;;;;;;;13.96;44.96;94666.13;5031399;28;20044;-72
2021/04/29 10:33:21;;;;;;;9.55;5.55;;;;;;;14.14;45.07;94659.00;5030116;28;20513;-72
2021/04/29 10:35:58;;;;;;;9.43;5.80;;;;;;;14.73;44.00;94652.38;5032095;28;20049;-72
2021/04/29 10:38:33;;;;;;;13.63;5.85;;;;;;;15.02;43.24;94670.19;5026948;28;20088;-73
2021/04/29 10:41:02;;;;;;;12.77;5.88;;;;;;;14.84;42.47;94652.81;5029915;28;20487;-72
2021/04/29 10:43:32;;;;;;;12.70;6.45;;;;;;;14.66;43.05;94642.25;5031239;28;20483;-71
2021/04/29 10:46:00;;;;;;;13.32;6.93;;;;;;;14.50;43.24;94649.16;5030403;28;20336;-71
2021/04/29 10:48:27;;;;;;;11.85;6.10;;;;;;;14.68;42.65;94644.59;5026471;28;20034;-72
2021/04/29 10:50:53;;;;;;;14.05;5.72;;;;;;;14.51;43.89;94650.69;5027478;28;20037;-71
2021/04/29 10:53:33;;;;;;;12.20;5.75;;;;;;;14.93;42.56;94650.91;5031764;28;20100;-71
2021/04/29 10:56:05;;;;;;;9.57;6.10;;;;;;;15.06;41.94;94644.63;5028999;28;20504;-71
2021/04/29 10:58:32;;;;;;;11.02;5.82;;;;;;;14.95;41.78;94648.72;5030684;28;20038;-71
2021/04/29 11:01:07;;;;;;;11.70;5.90;;;;;;;14.89;41.76;94644.69;5028929;28;20116;-71
2021/04/29 11:03:51;;;;;;;12.18;6.00;;;;;;;14.95;41.81;94646.06;5025973;28;20042;-72
2021/04/29 11:06:34;;;;;;;11.50;6.10;;;;;;;14.58;42.30;94645.69;5027961;28;20091;-71
2021/04/29 11:09:01;;;;;;;13.45;5.68;;;;;;;14.56;42.89;94646.00;5028565;28;20049;-71
2021/04/29 11:11:36;;;;;;;10.32;6.05;;;;;;;14.83;43.11;94645.97;5030608;28;20499;-72
2021/04/29 11:14:14;;;;;;;10.55;5.35;;;;;;;15.11;42.66;94640.22;5029252;28;20047;-71
2021/04/29 11:16:42;;;;;;;11.75;6.28;;;;;;;15.27;41.75;94641.25;5032174;28;20134;-72
2021/04/29 11:19:08;;;;;;;14.13;6.47;;;;;;;15.25;42.50;94635.50;5031008;28;20045;-71
2021/04/29 11:21:33;;;;;;;14.68;6.57;;;;;;;15.49;40.79;94628.81;5032107;28;20041;-72
2021/04/29 11:24:00;;;;;;;12.13;6.00;;;;;;;15.52;40.21;94628.16;5033403;28;20501;-72
2021/04/29 11:26:33;;;;;;;11.70;6.00;;;;;;;15.96;40.32;94626.00;5027094;28;20045;-72
2021/04/29 11:28:59;;;;;;;17.33;6.50;;;;;;;15.83;40.09;94629.69;5029713;28;20438;-72